Time;durP1;ratioP1;P1;durP2;ratioP2;P2;SDS_P1;SDS_P2;PMS_P1;PMS_P2;Temp;Humidity;BMP_temperature;BMP_pressure;BME280_temperature;BME280_humidity;BME280_pressure;Samples;Min_cycle;Max_cycle;Signal;HPM_P1;HPM_P2
2022/07/31 00:01:00;;;;;;;28.85;21.45;;;;;;;17.68;76.34;101055.19;7394573;19;20030;-68
2022/07/31 00:03:28;;;;;;;26.65;20.17;;;;;;;17.64;76.32;101052.75;7395154;19;20022;-69
2022/07/31 00:05:57;;;;;;;11.75;10.48;;;;;;;17.59;76.37;101051.19;7395567;19;20094;-68
2022/07/31 00:08:25;;;;;;;12.57;10.88;;;;;;;17.57;76.48;101054.84;7395337;19;20031;-68
2022/07/31 00:10:56;;;;;;;10.60;9.35;;;;;;;17.54;76.68;101052.31;7395229;19;20019;-68
2022/07/31 00:13:25;;;;;;;12.23;9.88;;;;;;;17.52;76.31;101055.03;7393856;19;20038;-68
2022/07/31 00:15:53;;;;;;;8.80;7.88;;;;;;;17.49;76.29;101052.53;7393001;19;20014;-68
2022/07/31 00:18:22;;;;;;;9.88;8.88;;;;;;;17.48;76.28;101047.28;7393385;19;20082;-68
2022/07/31 00:20:50;;;;;;;10.75;9.73;;;;;;;17.43;76.35;101047.50;7393221;19;20018;-69
2022/07/31 00:23:19;;;;;;;10.75;9.75;;;;;;;17.39;76.50;101038.81;7396389;19;20135;-69
2022/07/31 00:25:47;;;;;;;11.27;9.90;;;;;;;17.36;76.47;101044.28;7399279;19;20026;-69
2022/07/31 00:28:19;;;;;;;10.27;9.27;;;;;;;17.34;76.70;101040.81;7402342;19;20031;-68
2022/07/31 00:30:47;;;;;;;9.65;8.70;;;;;;;17.32;76.66;101036.53;7402702;19;20031;-68
2022/07/31 00:33:16;;;;;;;10.13;9.10;;;;;;;17.29;76.80;101042.84;7399306;19;20078;-69
2022/07/31 00:35:44;;;;;;;10.35;9.45;;;;;;;17.26;77.22;101038.53;7401731;19;20023;-68
2022/07/31 00:38:13;;;;;;;10.48;9.40;;;;;;;17.23;76.92;101036.00;7402048;19;20018;-68
2022/07/31 00:40:48;;;;;;;10.63;9.52;;;;;;;17.20;77.18;101038.81;7401960;19;20070;-68
2022/07/31 00:43:20;;;;;;;9.77;8.88;;;;;;;17.17;77.35;101036.28;7399183;19;20026;-68
2022/07/31 00:45:51;;;;;;;13.57;9.13;;;;;;;17.12;77.25;101025.00;7398480;19;20017;-69
2022/07/31 00:48:20;;;;;;;9.13;8.23;;;;;;;17.12;77.03;101037.41;7401708;19;20123;-68
2022/07/31 00:50:49;;;;;;;11.25;8.80;;;;;;;17.09;77.12;101031.31;7401413;19;20028;-68
2022/07/31 00:53:18;;;;;;;10.23;8.63;;;;;;;17.07;77.21;101041.16;7401524;19;20421;-68
2022/07/31 00:55:49;;;;;;;10.75;8.77;;;;;;;17.04;76.98;101033.31;7398746;19;20022;-69
2022/07/31 00:58:20;;;;;;;10.80;9.70;;;;;;;17.00;77.22;101036.19;7401715;19;20418;-69
2022/07/31 01:00:49;;;;;;;11.15;9.98;;;;;;;16.96;77.45;101030.16;7400956;19;20015;-68
2022/07/31 01:03:17;;;;;;;9.75;8.75;;;;;;;16.91;77.58;101029.50;7400798;19;20026;-68
2022/07/31 01:05:46;;;;;;;10.32;9.25;;;;;;;16.87;77.42;101033.16;7398547;19;20087;-68
2022/07/31 01:08:15;;;;;;;9.60;8.65;;;;;;;16.84;77.39;101041.25;7398043;19;20082;-69
2022/07/31 01:10:53;;;;;;;9.95;8.98;;;;;;;16.81;77.63;101049.31;7400621;19;20015;-69
2022/07/31 01:13:32;;;;;;;9.35;8.32;;;;;;;16.75;77.61;101048.66;7402128;19;20082;-69
2022/07/31 01:16:02;;;;;;;11.23;9.68;;;;;;;16.72;77.56;101048.81;7398716;19;20010;-69
2022/07/31 01:18:34;;;;;;;9.60;8.57;;;;;;;16.70;77.45;101050.63;7400905;19;20035;-69
2022/07/31 01:21:07;;;;;;;8.45;7.68;;;;;;;16.69;77.26;101046.25;7400889;19;20074;-69
2022/07/31 01:24:05;;;;;;;9.15;8.35;;;;;;;16.68;77.45;101041.03;7401023;19;20015;-69
2022/07/31 01:26:47;;;;;;;11.52;9.27;;;;;;;16.66;77.30;101042.91;7397416;19;20449;-69
2022/07/31 01:29:27;;;;;;;9.02;8.13;;;;;;;16.63;77.09;101040.38;7400787;19;20382;-69
2022/07/31 01:32:03;;;;;;;8.65;7.75;;;;;;;16.62;76.82;101036.88;7399858;19;20501;-69
2022/07/31 01:34:38;;;;;;;10.30;7.80;;;;;;;16.60;76.99;101041.38;7399189;19;20021;-69
2022/07/31 01:37:14;;;;;;;8.18;7.38;;;;;;;16.59;77.04;101043.16;7398699;19;20103;-69
2022/07/31 01:39:50;;;;;;;8.60;7.90;;;;;;;16.58;76.84;101046.72;7400435;19;20018;-69
2022/07/31 01:42:21;;;;;;;9.38;8.38;;;;;;;16.56;76.96;101048.56;7399628;19;20027;-69
2022/07/31 01:45:02;;;;;;;8.35;7.65;;;;;;;16.54;76.99;101045.16;7398863;19;20429;-69
2022/07/31 01:47:33;;;;;;;9.95;8.43;;;;;;;16.52;76.61;101048.78;7397445;19;20041;-68
2022/07/31 01:50:03;;;;;;;8.40;7.38;;;;;;;16.48;76.95;101045.41;7400143;19;20022;-68
2022/07/31 01:52:34;;;;;;;8.98;8.15;;;;;;;16.47;76.55;101048.09;7399842;19;20022;-69
2022/07/31 01:55:04;;;;;;;9.15;8.25;;;;;;;16.43;76.71;101042.94;7399962;19;20018;-68
2022/07/31 01:57:34;;;;;;;8.43;7.63;;;;;;;16.40;76.68;101040.44;7397811;19;20022;-68
2022/07/31 02:00:09;;;;;;;8.15;7.35;;;;;;;16.37;76.56;101037.88;7399038;19;20021;-68
2022/07/31 02:02:39;;;;;;;8.88;8.02;;;;;;;16.35;76.54;101041.53;7399293;19;20450;-68
2022/07/31 02:05:09;;;;;;;8.70;7.82;;;;;;;16.32;76.84;101041.66;7398419;19;20379;-68
2022/07/31 02:07:40;;;;;;;9.10;8.25;;;;;;;16.30;76.63;101044.34;7397234;19;20018;-68
2022/07/31 02:10:11;;;;;;;8.90;8.05;;;;;;;16.28;76.58;101046.22;7399438;19;20365;-69
2022/07/31 02:12:41;;;;;;;8.77;7.75;;;;;;;16.23;76.80;101038.47;7399327;19;20032;-68
2022/07/31 02:15:15;;;;;;;8.20;7.55;;;;;;;16.23;76.57;101040.25;7396669;19;20007;-69
2022/07/31 02:17:46;;;;;;;8.55;7.75;;;;;;;16.19;76.42;101034.22;7396639;19;20026;-68
2022/07/31 02:20:16;;;;;;;8.50;7.53;;;;;;;16.17;76.38;101040.50;7397889;19;20477;-68
2022/07/31 02:22:45;;;;;;;8.85;7.88;;;;;;;16.14;76.35;101036.19;7398934;19;20162;-68
2022/07/31 02:25:13;;;;;;;7.68;6.95;;;;;;;16.11;76.65;101033.66;7397053;19;20383;-68
2022/07/31 02:27:45;;;;;;;8.45;7.63;;;;;;;16.09;76.33;101031.06;7396604;19;20011;-69
2022/07/31 02:30:18;;;;;;;8.30;7.50;;;;;;;16.07;76.54;101035.56;7398831;19;20019;-68
2022/07/31 02:32:48;;;;;;;8.25;7.45;;;;;;;16.05;76.50;101031.25;7398701;19;20014;-68
2022/07/31 02:35:18;;;;;;;8.00;7.20;;;;;;;16.03;76.29;101033.13;7397844;19;20011;-68
2022/07/31 02:37:50;;;;;;;8.30;7.60;;;;;;;15.99;76.33;101031.53;7396179;19;20019;-68
2022/07/31 02:40:20;;;;;;;8.98;7.45;;;;;;;15.96;76.25;101035.13;7395993;19;20350;-68
2022/07/31 02:42:50;;;;;;;8.02;7.32;;;;;;;15.94;76.07;101023.75;7397835;19;20018;-68
2022/07/31 02:45:23;;;;;;;9.45;7.25;;;;;;;15.93;76.01;101019.38;7396795;19;20026;-68
2022/07/31 02:47:53;;;;;;;7.97;7.28;;;;;;;15.90;76.06;101015.06;7393014;19;20015;-68
2022/07/31 02:50:21;;;;;;;7.80;7.07;;;;;;;15.88;75.91;101011.63;7397249;19;20078;-69
2022/07/31 02:52:50;;;;;;;8.75;7.85;;;;;;;15.90;76.14;101022.16;7397971;19;20018;-68
2022/07/31 02:55:20;;;;;;;7.63;6.82;;;;;;;15.87;76.03;101020.50;7397537;19;20031;-69
2022/07/31 02:57:50;;;;;;;7.65;6.93;;;;;;;15.87;76.25;101022.28;7395670;19;20086;-68
2022/07/31 03:00:25;;;;;;;8.32;7.53;;;;;;;15.84;76.20;101017.97;7397386;19;20041;-68
2022/07/31 03:02:55;;;;;;;8.80;7.93;;;;;;;15.84;75.97;101014.47;7397424;19;20107;-68
2022/07/31 03:05:24;;;;;;;8.65;7.85;;;;;;;15.83;76.10;101018.03;7395171;19;20014;-69
2022/07/31 03:07:53;;;;;;;9.20;8.27;;;;;;;15.80;76.11;101011.03;7395018;19;20481;-69
2022/07/31 03:10:21;;;;;;;8.18;7.38;;;;;;;15.77;76.23;101017.31;7397189;19;20014;-68
2022/07/31 03:13:00;;;;;;;8.23;7.47;;;;;;;15.76;76.26;101012.09;7396915;19;20014;-68
2022/07/31 03:15:33;;;;;;;8.02;7.32;;;;;;;15.73;76.26;101007.78;7395407;19;20006;-68
2022/07/31 03:18:04;;;;;;;8.30;7.60;;;;;;;15.72;76.41;101006.06;7395113;19;20022;-68
2022/07/31 03:20:32;;;;;;;8.00;7.22;;;;;;;15.70;76.32;101007.88;7397404;19;20022;-69
2022/07/31 03:23:02;;;;;;;8.35;7.65;;;;;;;15.68;76.32;101015.00;7396274;19;20018;-68
2022/07/31 03:25:31;;;;;;;8.20;7.43;;;;;;;15.65;76.29;101001.91;7395562;19;20082;-68
2022/07/31 03:28:00;;;;;;;8.50;7.68;;;;;;;15.61;76.66;100998.53;7394362;19;20018;-68
2022/07/31 03:30:31;;;;;;;8.50;7.65;;;;;;;15.60;76.47;101003.88;7394272;19;20353;-68
2022/07/31 03:33:02;;;;;;;7.90;7.18;;;;;;;15.59;76.75;101007.44;7394803;19;20022;-67
2022/07/31 03:35:31;;;;;;;8.05;7.35;;;;;;;15.55;76.73;101004.06;7395907;19;20021;-68
2022/07/31 03:38:01;;;;;;;8.35;7.65;;;;;;;15.55;76.79;101008.50;7394553;19;20017;-68
2022/07/31 03:40:29;;;;;;;12.82;8.05;;;;;;;15.52;76.50;101000.66;7395919;19;20031;-68
2022/07/31 03:42:59;;;;;;;7.82;7.10;;;;;;;15.49;76.52;101006.94;7395783;19;20019;-68
2022/07/31 03:45:31;;;;;;;8.15;7.38;;;;;;;15.47;76.46;101009.63;7395312;19;20035;-67
2022/07/31 03:47:59;;;;;;;8.38;7.57;;;;;;;15.46;76.71;101012.34;7394182;19;20026;-68
2022/07/31 03:50:28;;;;;;;8.93;7.47;;;;;;;15.44;76.65;101017.69;7395847;19;20034;-68
2022/07/31 03:52:58;;;;;;;8.38;7.53;;;;;;;15.42;76.94;101010.75;7393454;19;20582;-68
2022/07/31 03:55:29;;;;;;;8.10;7.28;;;;;;;15.39;76.89;101016.13;7396182;19;20385;-68
2022/07/31 03:57:57;;;;;;;8.68;7.90;;;;;;;15.40;76.86;101012.56;7393083;19;20030;-68
2022/07/31 04:00:26;;;;;;;9.02;8.20;;;;;;;15.39;76.78;101010.84;7395518;19;20115;-68
2022/07/31 04:02:59;;;;;;;8.27;7.55;;;;;;;15.39;76.87;101011.72;7393194;19;20509;-68
2022/07/31 04:05:28;;;;;;;8.77;7.90;;;;;;;15.39;76.98;101019.66;7393304;19;20080;-68
2022/07/31 04:07:56;;;;;;;9.60;7.78;;;;;;;15.39;77.10;101016.13;7393059;19;20489;-68
2022/07/31 04:10:25;;;;;;;8.38;7.53;;;;;;;15.38;77.14;101015.28;7394670;19;20022;-69
2022/07/31 04:12:53;;;;;;;8.93;7.80;;;;;;;15.39;76.91;101021.41;7394240;19;20431;-68
2022/07/31 04:15:22;;;;;;;9.52;8.65;;;;;;;15.38;76.97;101027.63;7393554;19;20422;-68
2022/07/31 04:17:50;;;;;;;10.38;8.77;;;;;;;15.36;76.78;101019.75;7393252;19;20027;-68
2022/07/31 04:20:22;;;;;;;8.98;8.00;;;;;;;15.35;77.13;101010.09;7394786;19;20074;-68
2022/07/31 04:22:50;;;;;;;8.80;7.80;;;;;;;15.36;77.06;101010.97;7395065;19;20025;-68
2022/07/31 04:25:19;;;;;;;9.80;8.80;;;;;;;15.36;77.06;101010.97;7394160;19;20039;-68
2022/07/31 04:27:47;;;;;;;9.13;8.32;;;;;;;15.37;77.14;101026.78;7392897;19;20023;-68
2022/07/31 04:30:16;;;;;;;9.43;8.57;;;;;;;15.38;77.00;101020.56;7394540;19;20018;-68
2022/07/31 04:32:44;;;;;;;10.20;7.72;;;;;;;15.41;77.07;101025.72;7394491;19;20022;-68
2022/07/31 04:35:13;;;;;;;9.48;8.57;;;;;;;15.43;76.90;101015.09;7394388;19;20104;-68
2022/07/31 04:37:44;;;;;;;9.52;8.60;;;;;;;15.46;77.04;101030.84;7392776;19;20015;-68
2022/07/31 04:40:14;;;;;;;18.75;9.07;;;;;;;15.48;76.82;101031.66;7394685;19;20018;-68
2022/07/31 04:42:43;;;;;;;8.82;8.02;;;;;;;15.50;76.77;101019.22;7393892;19;20580;-68
2022/07/31 04:45:12;;;;;;;9.25;8.25;;;;;;;15.52;77.04;101024.47;7393749;19;20444;-68
2022/07/31 04:47:40;;;;;;;9.35;8.45;;;;;;;15.53;76.87;101031.47;7391800;19;20425;-68
2022/07/31 04:50:10;;;;;;;9.70;8.68;;;;;;;15.55;77.12;101029.66;7391830;19;20395;-68
2022/07/31 04:52:39;;;;;;;9.80;8.80;;;;;;;15.56;77.08;101023.44;7393633;19;20034;-68
2022/07/31 04:55:11;;;;;;;8.98;8.18;;;;;;;15.60;77.00;101030.34;7391647;19;20027;-69
2022/07/31 04:57:39;;;;;;;9.23;8.32;;;;;;;15.62;76.99;101025.84;7391540;19;20035;-69
2022/07/31 05:00:10;;;;;;;12.38;9.95;;;;;;;15.64;76.82;101024.88;7393951;19;20039;-68
2022/07/31 05:02:39;;;;;;;12.85;10.48;;;;;;;15.69;76.84;101029.97;7393514;19;20039;-68
2022/07/31 05:05:09;;;;;;;10.90;8.70;;;;;;;15.73;76.96;101030.72;7393599;19;20018;-68
2022/07/31 05:07:37;;;;;;;8.80;7.90;;;;;;;15.75;76.87;101035.03;7391359;19;20084;-68
2022/07/31 05:10:07;;;;;;;9.02;7.80;;;;;;;15.79;76.62;101035.78;7394116;19;20422;-68
2022/07/31 05:12:38;;;;;;;8.45;7.65;;;;;;;15.83;76.64;101041.84;7401051;19;20039;-68
2022/07/31 05:15:08;;;;;;;9.77;8.00;;;;;;;15.86;76.76;101036.41;7399146;19;20473;-67
2022/07/31 05:17:36;;;;;;;9.00;8.25;;;;;;;15.88;76.60;101032.78;7398002;19;20018;-68
2022/07/31 05:20:06;;;;;;;9.27;8.27;;;;;;;15.92;76.60;101039.69;7400477;19;20031;-68
2022/07/31 05:22:34;;;;;;;10.15;7.95;;;;;;;15.96;76.71;101041.28;7400125;19;20371;-67
2022/07/31 05:25:02;;;;;;;8.07;7.43;;;;;;;16.00;76.69;101036.75;7400343;19;20367;-68
2022/07/31 05:27:31;;;;;;;8.27;7.50;;;;;;;16.05;76.47;101042.72;7397877;19;20018;-68
2022/07/31 05:30:02;;;;;;;8.45;7.72;;;;;;;16.11;76.46;101044.25;7399763;19;20019;-68
2022/07/31 05:32:31;;;;;;;8.43;7.57;;;;;;;16.17;76.50;101051.09;7400234;19;20006;-69
2022/07/31 05:34:59;;;;;;;8.55;7.75;;;;;;;16.21;76.48;101047.38;7400450;19;20024;-68
2022/07/31 05:37:28;;;;;;;8.38;7.57;;;;;;;16.24;76.17;101045.47;7397972;19;20019;-68
2022/07/31 05:39:56;;;;;;;9.13;8.27;;;;;;;16.27;76.15;101044.50;7396944;19;20083;-68
2022/07/31 05:42:25;;;;;;;9.10;8.20;;;;;;;16.31;76.51;101046.09;7399394;19;20019;-68
2022/07/31 05:44:53;;;;;;;8.52;7.28;;;;;;;16.36;76.03;101045.91;7399682;19;20021;-68
2022/07/31 05:47:24;;;;;;;9.38;7.63;;;;;;;16.41;76.02;101044.78;7397212;19;20026;-69
2022/07/31 05:49:53;;;;;;;8.63;7.65;;;;;;;16.48;76.32;101052.47;7396873;19;20018;-69
2022/07/31 05:52:21;;;;;;;9.27;7.55;;;;;;;16.54;76.01;101054.88;7396572;19;20022;-68
2022/07/31 05:54:50;;;;;;;8.05;7.25;;;;;;;16.58;76.06;101045.84;7399379;19;20082;-68
2022/07/31 05:57:18;;;;;;;8.18;7.47;;;;;;;16.64;76.27;101050.06;7397707;19;20086;-68
2022/07/31 05:59:47;;;;;;;8.13;7.43;;;;;;;16.69;75.88;101050.72;7396986;19;20019;-68
2022/07/31 06:02:15;;;;;;;7.88;7.20;;;;;;;16.75;76.07;101043.34;7398836;19;20082;-69
2022/07/31 06:04:46;;;;;;;8.88;7.88;;;;;;;16.83;75.91;101043.03;7399108;19;20031;-69
2022/07/31 06:07:15;;;;;;;9.05;8.20;;;;;;;16.91;75.67;101037.44;7396625;19;20022;-69
2022/07/31 06:09:43;;;;;;;9.02;8.07;;;;;;;16.99;75.66;101034.47;7398951;19;20035;-68
2022/07/31 06:12:12;;;;;;;10.10;8.98;;;;;;;17.08;75.79;101036.69;7398915;19;20082;-69
2022/07/31 06:14:53;;;;;;;9.98;8.98;;;;;;;17.18;75.42;101037.16;7395527;19;20027;-67
2022/07/31 06:17:22;;;;;;;8.90;7.70;;;;;;;17.26;74.91;101035.00;7397233;19;20100;-68
2022/07/31 06:19:53;;;;;;;9.77;8.88;;;;;;;17.34;75.05;101038.19;7398123;19;20027;-68
2022/07/31 06:22:22;;;;;;;8.63;7.82;;;;;;;17.41;74.56;101036.97;7398194;19;20036;-68
2022/07/31 06:24:50;;;;;;;7.85;7.15;;;;;;;17.50;74.33;101048.06;7398244;19;20194;-68
2022/07/31 06:27:19;;;;;;;9.10;7.45;;;;;;;17.57;74.07;101044.22;7395998;19;20513;-68
2022/07/31 06:29:47;;;;;;;8.50;7.47;;;;;;;17.66;73.85;101046.44;7398262;19;20015;-68
2022/07/31 06:32:16;;;;;;;7.70;6.88;;;;;;;17.75;73.78;101050.44;7397517;19;20587;-68
2022/07/31 06:34:45;;;;;;;10.00;8.90;;;;;;;17.85;73.54;101061.50;7397658;19;20502;-68
2022/07/31 06:37:16;;;;;;;7.65;6.95;;;;;;;17.92;73.27;101060.28;7396052;19;20481;-68
2022/07/31 06:39:44;;;;;;;8.20;7.40;;;;;;;18.00;72.80;101055.50;7398194;19;20019;-68
2022/07/31 06:42:13;;;;;;;12.18;6.95;;;;;;;18.07;72.10;101062.22;7397743;19;20014;-68
2022/07/31 06:44:41;;;;;;;7.97;7.18;;;;;;;18.16;72.06;101063.59;7398039;19;20028;-68
2022/07/31 06:47:10;;;;;;;7.82;7.03;;;;;;;18.24;71.95;101068.53;7396054;19;20035;-68
2022/07/31 06:49:39;;;;;;;7.95;6.80;;;;;;;18.32;71.72;101066.31;7397544;19;20019;-68
2022/07/31 06:52:08;;;;;;;6.95;6.22;;;;;;;18.40;70.85;101055.34;7397229;19;20025;-67
2022/07/31 06:54:39;;;;;;;7.63;6.88;;;;;;;18.49;70.62;101054.03;7397742;19;20035;-69
2022/07/31 06:57:07;;;;;;;7.45;6.68;;;;;;;18.57;70.48;101054.50;7396229;19;20086;-69
2022/07/31 06:59:36;;;;;;;6.43;5.88;;;;;;;18.66;70.46;101054.00;7396949;19;20540;-68
2022/07/31 07:02:04;;;;;;;7.30;6.60;;;;;;;18.73;70.16;101060.75;7395063;19;20015;-68
2022/07/31 07:04:33;;;;;;;6.07;5.57;;;;;;;18.83;70.01;101049.63;7395633;19;20018;-69
2022/07/31 07:07:01;;;;;;;6.47;5.25;;;;;;;18.92;69.72;101043.00;7395782;19;20081;-69
2022/07/31 07:09:30;;;;;;;7.47;5.30;;;;;;;19.01;69.10;101043.41;7396842;19;20082;-69
2022/07/31 07:12:01;;;;;;;6.82;5.45;;;;;;;19.11;68.19;101048.22;7396548;19;20439;-68
2022/07/31 07:14:30;;;;;;;8.60;5.05;;;;;;;19.21;68.00;101049.47;7396507;19;20397;-69
2022/07/31 07:16:58;;;;;;;7.22;4.93;;;;;;;19.28;67.95;101047.34;7394893;19;20419;-69
2022/07/31 07:19:26;;;;;;;7.05;5.43;;;;;;;19.34;67.69;101042.53;7394408;19;20015;-69
2022/07/31 07:21:55;;;;;;;5.68;5.18;;;;;;;19.42;67.51;101044.78;7394372;19;20031;-69
2022/07/31 07:24:24;;;;;;;5.47;4.95;;;;;;;19.50;67.10;101045.25;7396169;19;20014;-68
2022/07/31 07:26:52;;;;;;;5.63;5.13;;;;;;;19.59;66.41;101035.03;7394890;19;20022;-68
2022/07/31 07:29:23;;;;;;;5.18;4.68;;;;;;;19.66;65.89;101031.97;7394722;19;20091;-68
2022/07/31 07:31:52;;;;;;;6.97;4.85;;;;;;;19.74;66.16;101023.53;7394310;19;20010;-69
2022/07/31 07:34:20;;;;;;;5.80;4.85;;;;;;;19.82;65.09;101025.78;7394896;19;20014;-69
2022/07/31 07:36:49;;;;;;;6.45;4.32;;;;;;;19.90;65.15;101023.56;7395252;19;20025;-69
2022/07/31 07:39:17;;;;;;;5.32;4.35;;;;;;;19.97;65.00;101022.28;7396025;19;20027;-69
2022/07/31 07:41:46;;;;;;;6.38;4.53;;;;;;;20.07;64.54;101022.59;7395858;19;20044;-69
2022/07/31 07:44:14;;;;;;;5.40;4.90;;;;;;;20.15;64.05;101030.16;7396292;19;20018;-68
2022/07/31 07:46:45;;;;;;;5.63;4.63;;;;;;;20.20;64.12;101020.09;7394379;19;20018;-68
2022/07/31 07:49:14;;;;;;;5.05;4.40;;;;;;;20.28;63.58;101015.19;7396274;19;20024;-69
2022/07/31 07:51:42;;;;;;;4.70;4.05;;;;;;;20.37;63.43;101012.91;7393409;19;20010;-68
2022/07/31 07:54:11;;;;;;;4.68;3.95;;;;;;;20.47;63.07;101008.75;7395462;19;20027;-68
2022/07/31 07:56:40;;;;;;;4.72;3.80;;;;;;;20.55;61.61;101014.50;7394647;19;20025;-69
2022/07/31 07:59:08;;;;;;;4.18;3.65;;;;;;;20.63;61.39;101008.72;7395348;19;20026;-69
2022/07/31 08:01:37;;;;;;;4.25;3.83;;;;;;;20.71;60.90;100997.63;7395535;19;20366;-67
2022/07/31 08:04:08;;;;;;;5.88;4.00;;;;;;;20.80;59.93;100999.72;7393424;19;20032;-68
2022/07/31 08:06:36;;;;;;;5.32;4.13;;;;;;;20.90;60.74;100998.22;7394456;19;20039;-68
2022/07/31 08:09:05;;;;;;;4.18;3.28;;;;;;;20.97;59.81;100996.03;7394574;19;20552;-68
2022/07/31 08:11:34;;;;;;;3.55;3.25;;;;;;;21.04;59.73;100999.16;7394722;19;20022;-68
2022/07/31 08:14:02;;;;;;;4.60;3.83;;;;;;;21.13;59.19;101003.94;7394883;19;20035;-68
2022/07/31 08:16:31;;;;;;;3.72;3.42;;;;;;;21.22;59.29;100999.81;7392879;19;20411;-68
2022/07/31 08:18:59;;;;;;;5.45;3.50;;;;;;;21.31;58.96;101005.44;7394921;19;20018;-68
2022/07/31 08:21:31;;;;;;;4.22;3.83;;;;;;;21.39;58.28;100993.44;7394158;19;20018;-69
2022/07/31 08:23:59;;;;;;;4.95;3.70;;;;;;;21.49;58.53;101002.56;7395663;19;20036;-68
2022/07/31 08:27:22;;;;;;;4.57;4.18;;;;;;;21.57;58.13;100997.66;7394185;19;20018;-68
2022/07/31 08:29:16;;;;;;;3.63;3.33;;;;;;;21.66;57.96;100995.31;7394105;19;20024;-68
2022/07/31 08:31:45;;;;;;;4.47;3.80;;;;;;;21.79;58.22;100996.25;7394187;19;20510;-68
2022/07/31 08:34:13;;;;;;;4.78;3.70;;;;;;;21.88;58.04;100997.47;7392577;19;20035;-68
2022/07/31 08:36:44;;;;;;;3.85;3.42;;;;;;;21.95;57.05;100998.75;7391844;19;20037;-67
2022/07/31 08:39:12;;;;;;;6.50;3.80;;;;;;;22.02;56.98;100994.72;7393600;19;20435;-68
2022/07/31 08:41:41;;;;;;;5.13;3.75;;;;;;;22.09;57.00;100989.81;7391637;19;20549;-68
2022/07/31 08:44:11;;;;;;;4.75;3.55;;;;;;;22.15;56.37;100992.09;7394328;19;20035;-68
2022/07/31 08:46:41;;;;;;;3.72;3.30;;;;;;;22.22;56.45;100984.53;7398459;19;20514;-68
2022/07/31 08:49:13;;;;;;;6.72;4.05;;;;;;;22.28;56.00;100986.81;7402234;19;20022;-67
2022/07/31 08:51:46;;;;;;;4.70;3.20;;;;;;;22.35;55.34;100973.88;7402106;19;20070;-67
2022/07/31 08:54:15;;;;;;;3.28;2.97;;;;;;;22.43;55.34;100974.22;7401346;19;20480;-67
2022/07/31 08:56:45;;;;;;;3.63;3.22;;;;;;;22.51;55.11;100973.69;7399995;19;20019;-67
2022/07/31 08:59:16;;;;;;;6.05;2.95;;;;;;;22.58;54.96;100973.19;7398799;19;20074;-67
2022/07/31 09:01:44;;;;;;;6.25;3.35;;;;;;;22.69;54.41;100980.47;7400971;19;20011;-70
2022/07/31 09:04:13;;;;;;;22.08;16.67;;;;;;;22.80;53.98;100971.69;7401288;19;20022;-70
2022/07/31 09:06:44;;;;;;;4.30;3.80;;;;;;;22.90;53.96;100962.06;7398116;19;20505;-69
2022/07/31 09:09:13;;;;;;;3.78;3.10;;;;;;;23.00;53.42;100972.97;7398765;19;20018;-68
2022/07/31 09:11:48;;;;;;;4.90;3.35;;;;;;;23.13;52.12;100969.41;7401047;19;20019;-69
2022/07/31 09:14:26;;;;;;;5.78;3.55;;;;;;;23.23;51.94;100962.50;7401431;19;20070;-70
2022/07/31 09:16:57;;;;;;;5.28;3.33;;;;;;;23.34;52.59;100954.53;7397949;19;20371;-71
2022/07/31 09:19:37;;;;;;;4.20;3.50;;;;;;;23.48;52.09;100958.88;7398490;19;20050;-70
2022/07/31 09:22:08;;;;;;;6.25;3.55;;;;;;;23.62;51.24;100947.16;7400645;19;20018;-70
2022/07/31 09:24:37;;;;;;;6.20;3.35;;;;;;;23.72;51.47;100955.34;7400217;19;20428;-70
2022/07/31 09:27:08;;;;;;;4.65;3.47;;;;;;;23.75;50.59;100950.63;7398842;19;20032;-75
2022/07/31 09:29:38;;;;;;;7.18;3.35;;;;;;;23.80;50.93;100944.94;7400782;19;20031;-70
2022/07/31 09:32:11;;;;;;;4.05;3.55;;;;;;;23.81;50.74;100946.66;7397204;19;20406;-70
2022/07/31 09:34:40;;;;;;;3.30;3.00;;;;;;;23.84;50.98;100949.09;7400943;19;20014;-70
2022/07/31 09:37:17;;;;;;;5.90;3.20;;;;;;;23.86;50.47;100944.47;7398571;19;20093;-70
2022/07/31 09:39:51;;;;;;;6.18;3.33;;;;;;;23.87;50.43;100939.97;7398039;19;20026;-70
2022/07/31 09:42:20;;;;;;;6.63;3.80;;;;;;;23.86;50.38;100944.47;7399661;19;20019;-69
2022/07/31 09:44:51;;;;;;;5.15;3.38;;;;;;;23.83;50.39;100935.81;7399619;19;20019;-69
2022/07/31 09:47:25;;;;;;;5.00;3.40;;;;;;;23.84;50.00;100942.88;7397040;19;20027;-70
2022/07/31 09:49:57;;;;;;;7.30;3.22;;;;;;;23.86;50.15;100941.81;7399424;19;20018;-70
2022/07/31 09:52:30;;;;;;;4.22;3.40;;;;;;;23.86;49.14;100941.81;7399836;19;20508;-71
2022/07/31 09:55:06;;;;;;;5.38;3.45;;;;;;;23.93;49.81;100946.72;7396813;19;20011;-71
2022/07/31 09:57:36;;;;;;;6.53;3.80;;;;;;;23.96;49.73;100941.13;7394950;19;20010;-73
2022/07/31 10:00:07;;;;;;;6.75;4.13;;;;;;;24.04;49.45;100936.91;7398627;19;20034;-70
2022/07/31 10:02:38;;;;;;;6.05;4.10;;;;;;;24.12;49.24;100936.31;7400310;19;20032;-71
2022/07/31 10:05:07;;;;;;;4.35;3.53;;;;;;;24.18;49.36;100935.84;7401079;19;20481;-70
2022/07/31 10:07:40;;;;;;;6.45;3.53;;;;;;;24.27;48.11;100928.09;7397446;19;20074;-71
2022/07/31 10:10:10;;;;;;;4.82;3.67;;;;;;;24.33;47.63;100938.34;7399244;19;20367;-71
2022/07/31 10:12:43;;;;;;;4.35;3.40;;;;;;;24.38;47.42;100925.44;7399473;19;20014;-71
2022/07/31 10:15:15;;;;;;;4.22;3.50;;;;;;;24.44;47.17;100930.31;7399207;19;20022;-70
2022/07/31 10:17:46;;;;;;;3.80;3.33;;;;;;;24.51;47.38;100914.59;7396270;19;20481;-71
2022/07/31 10:20:20;;;;;;;3.63;3.03;;;;;;;24.58;46.56;100914.97;7399124;19;20023;-70
2022/07/31 10:22:55;;;;;;;4.05;3.17;;;;;;;24.63;45.28;100913.66;7399120;19;20018;-71
2022/07/31 10:25:27;;;;;;;7.32;3.22;;;;;;;24.70;45.93;100912.19;7398773;19;20040;-71
2022/07/31 10:27:56;;;;;;;4.03;3.30;;;;;;;24.74;46.18;100910.13;7395905;19;20027;-71
2022/07/31 10:30:25;;;;;;;3.45;2.97;;;;;;;24.86;45.66;100919.06;7398451;19;20037;-71
2022/07/31 10:32:54;;;;;;;4.63;3.30;;;;;;;24.97;45.70;100904.75;7397182;19;20018;-70
2022/07/31 10:35:23;;;;;;;4.90;4.40;;;;;;;25.05;45.02;100900.47;7397406;19;20015;-70
2022/07/31 10:37:59;;;;;;;3.78;3.15;;;;;;;25.16;44.95;100905.00;7395251;19;20502;-70
2022/07/31 10:40:35;;;;;;;5.82;2.80;;;;;;;25.26;44.90;100894.34;7396336;19;20010;-70
2022/07/31 10:43:23;;;;;;;5.50;2.97;;;;;;;25.40;43.46;100898.59;7396368;19;20424;-70
2022/07/31 10:45:53;;;;;;;7.78;6.97;;;;;;;25.49;44.56;100883.56;7398254;19;20191;-71
2022/07/31 10:48:23;;;;;;;3.70;3.40;;;;;;;25.61;44.32;100884.41;7396916;19;20011;-70
2022/07/31 10:51:03;;;;;;;3.47;3.03;;;;;;;25.71;43.44;100881.81;7397938;19;20115;-70
2022/07/31 10:53:34;;;;;;;4.18;2.78;;;;;;;25.80;43.42;100887.22;7397691;19;20461;-70
2022/07/31 10:56:04;;;;;;;4.75;3.08;;;;;;;25.86;43.12;100880.50;7395721;19;20014;-71
2022/07/31 10:58:33;;;;;;;4.40;3.13;;;;;;;25.92;42.83;100882.66;7397461;19;20074;-71
2022/07/31 11:01:09;;;;;;;5.22;3.20;;;;;;;26.01;41.79;100889.94;7395665;19;20090;-70
2022/07/31 11:03:43;;;;;;;7.38;3.08;;;;;;;26.09;42.38;100902.75;7397019;19;20485;-69
2022/07/31 11:06:12;;;;;;;3.92;2.63;;;;;;;26.19;42.70;100886.69;7395141;19;20375;-71
2022/07/31 11:08:50;;;;;;;4.82;3.50;;;;;;;26.28;41.57;100888.59;7392607;19;20032;-71
2022/07/31 11:11:18;;;;;;;4.72;2.63;;;;;;;26.34;41.59;100882.69;7397443;19;20015;-70
2022/07/31 11:13:51;;;;;;;3.55;2.85;;;;;;;26.39;40.65;100887.66;7397449;19;20010;-69
2022/07/31 11:16:21;;;;;;;3.40;2.70;;;;;;;26.43;41.22;100889.09;7395811;19;20031;-69
2022/07/31 11:18:58;;;;;;;3.83;3.22;;;;;;;26.50;39.80;100884.91;7396432;19;20036;-69
2022/07/31 11:21:35;;;;;;;3.85;2.60;;;;;;;26.55;38.91;100875.56;7396947;19;20038;-68
2022/07/31 11:24:14;;;;;;;3.80;2.70;;;;;;;26.59;38.63;100879.69;7396014;19;20027;-69
2022/07/31 11:26:53;;;;;;;4.38;2.50;;;;;;;26.58;37.29;100872.63;7395301;19;20014;-69
2022/07/31 11:29:30;;;;;;;3.00;2.47;;;;;;;26.55;37.50;100886.31;7393736;19;20015;-69
2022/07/31 11:32:02;;;;;;;4.55;2.30;;;;;;;26.49;36.65;100877.81;7396619;19;20018;-68
2022/07/31 11:34:30;;;;;;;6.10;2.33;;;;;;;26.49;37.46;100875.13;7396926;19;20021;-70
2022/07/31 11:36:59;;;;;;;4.63;2.38;;;;;;;26.57;37.70;100874.44;7394674;19;20014;-69
2022/07/31 11:39:30;;;;;;;4.93;1.98;;;;;;;26.59;36.06;100890.44;7393937;19;20419;-71